sensor_id;sensor_type;location;lat;lon;timestamp;P1;durP1;ratioP1;P2;durP2;ratioP2
51066;SDS011;37112;45.892;-123.962;2023-03-01T00:01:30;12.20;;;1.60;;
51066;SDS011;37112;45.892;-123.962;2023-03-01T00:03:44;6.90;;;1.50;;
51066;SDS011;37112;45.892;-123.962;2023-03-01T00:05:58;11.00;;;1.50;;
51066;SDS011;37112;45.892;-123.962;2023-03-01T00:08:12;3.40;;;1.20;;
51066;SDS011;37112;45.892;-123.962;2023-03-01T00:10:25;9.90;;;2.20;;
51066;SDS011;37112;45.892;-123.962;2023-03-01T00:12:38;5.60;;;1.40;;
51066;SDS011;37112;45.892;-123.962;2023-03-01T00:14:52;7.60;;;1.80;;
51066;SDS011;37112;45.892;-123.962;2023-03-01T00:17:05;31.90;;;4.40;;
51066;SDS011;37112;45.892;-123.962;2023-03-01T00:19:18;15.90;;;2.40;;
51066;SDS011;37112;45.892;-123.962;2023-03-01T00:21:32;5.50;;;2.30;;
51066;SDS011;37112;45.892;-123.962;2023-03-01T00:23:49;15.70;;;2.30;;
51066;SDS011;37112;45.892;-123.962;2023-03-01T00:26:05;18.20;;;3.60;;
51066;SDS011;37112;45.892;-123.962;2023-03-01T00:28:19;14.20;;;2.50;;
51066;SDS011;37112;45.892;-123.962;2023-03-01T00:30:32;6.60;;;1.90;;
51066;SDS011;37112;45.892;-123.962;2023-03-01T00:32:45;5.30;;;1.40;;
51066;SDS011;37112;45.892;-123.962;2023-03-01T00:34:58;9.80;;;1.10;;
51066;SDS011;37112;45.892;-123.962;2023-03-01T00:37:13;10.10;;;1.60;;
51066;SDS011;37112;45.892;-123.962;2023-03-01T00:39:26;10.70;;;1.60;;
51066;SDS011;37112;45.892;-123.962;2023-03-01T00:41:39;15.70;;;1.90;;
51066;SDS011;37112;45.892;-123.962;2023-03-01T00:43:52;13.70;;;2.20;;
51066;SDS011;37112;45.892;-123.962;2023-03-01T00:46:06;13.40;;;2.20;;
51066;SDS011;37112;45.892;-123.962;2023-03-01T00:48:21;6.90;;;1.80;;
51066;SDS011;37112;45.892;-123.962;2023-03-01T00:50:34;11.70;;;2.60;;
51066;SDS011;37112;45.892;-123.962;2023-03-01T00:52:51;13.20;;;2.10;;
51066;SDS011;37112;45.892;-123.962;2023-03-01T00:55:07;13.10;;;1.70;;
51066;SDS011;37112;45.892;-123.962;2023-03-01T00:57:22;8.30;;;2.00;;
51066;SDS011;37112;45.892;-123.962;2023-03-01T00:59:35;8.00;;;2.00;;
51066;SDS011;37112;45.892;-123.962;2023-03-01T01:01:48;4.70;;;1.20;;
51066;SDS011;37112;45.892;-123.962;2023-03-01T01:04:02;14.30;;;1.90;;
51066;SDS011;37112;45.892;-123.962;2023-03-01T01:06:18;22.20;;;2.80;;
51066;SDS011;37112;45.892;-123.962;2023-03-01T01:08:34;3.50;;;1.10;;
51066;SDS011;37112;45.892;-123.962;2023-03-01T01:10:48;9.30;;;1.80;;
51066;SDS011;37112;45.892;-123.962;2023-03-01T01:13:00;4.70;;;1.20;;
51066;SDS011;37112;45.892;-123.962;2023-03-01T01:15:14;6.40;;;1.10;;
51066;SDS011;37112;45.892;-123.962;2023-03-01T01:17:27;11.40;;;1.50;;
51066;SDS011;37112;45.892;-123.962;2023-03-01T01:19:40;5.90;;;1.90;;
51066;SDS011;37112;45.892;-123.962;2023-03-01T01:21:53;6.90;;;2.80;;
51066;SDS011;37112;45.892;-123.962;2023-03-01T01:24:07;5.60;;;1.10;;
51066;SDS011;37112;45.892;-123.962;2023-03-01T01:26:21;5.50;;;1.40;;
51066;SDS011;37112;45.892;-123.962;2023-03-01T01:28:36;4.90;;;0.80;;
51066;SDS011;37112;45.892;-123.962;2023-03-01T01:30:49;6.50;;;2.00;;
51066;SDS011;37112;45.892;-123.962;2023-03-01T01:33:02;8.40;;;4.40;;
51066;SDS011;37112;45.892;-123.962;2023-03-01T01:35:15;13.30;;;5.40;;
51066;SDS011;37112;45.892;-123.962;2023-03-01T01:37:29;7.00;;;2.60;;
51066;SDS011;37112;45.892;-123.962;2023-03-01T01:39:42;7.40;;;4.10;;
51066;SDS011;37112;45.892;-123.962;2023-03-01T01:41:57;15.20;;;7.40;;
51066;SDS011;37112;45.892;-123.962;2023-03-01T01:44:14;10.60;;;7.70;;
51066;SDS011;37112;45.892;-123.962;2023-03-01T01:46:29;7.80;;;3.80;;
51066;SDS011;37112;45.892;-123.962;2023-03-01T01:48:46;19.00;;;3.90;;
51066;SDS011;37112;45.892;-123.962;2023-03-01T01:51:04;3.70;;;3.00;;
51066;SDS011;37112;45.892;-123.962;2023-03-01T01:53:19;5.40;;;2.50;;
51066;SDS011;37112;45.892;-123.962;2023-03-01T01:55:34;2.30;;;1.10;;
51066;SDS011;37112;45.892;-123.962;2023-03-01T01:57:52;4.20;;;2.40;;
51066;SDS011;37112;45.892;-123.962;2023-03-01T02:00:12;4.20;;;1.30;;
51066;SDS011;37112;45.892;-123.962;2023-03-01T02:02:28;4.20;;;1.30;;
51066;SDS011;37112;45.892;-123.962;2023-03-01T02:04:42;2.60;;;1.00;;
51066;SDS011;37112;45.892;-123.962;2023-03-01T02:06:59;3.90;;;1.40;;
51066;SDS011;37112;45.892;-123.962;2023-03-01T02:09:17;4.80;;;1.40;;
51066;SDS011;37112;45.892;-123.962;2023-03-01T02:11:33;3.70;;;1.10;;
51066;SDS011;37112;45.892;-123.962;2023-03-01T02:13:48;4.50;;;2.40;;
51066;SDS011;37112;45.892;-123.962;2023-03-01T02:16:07;4.40;;;3.50;;
51066;SDS011;37112;45.892;-123.962;2023-03-01T02:18:23;9.30;;;5.50;;
51066;SDS011;37112;45.892;-123.962;2023-03-01T02:20:39;6.90;;;5.70;;
51066;SDS011;37112;45.892;-123.962;2023-03-01T02:23:01;6.90;;;3.40;;
51066;SDS011;37112;45.892;-123.962;2023-03-01T02:25:23;4.40;;;1.90;;
51066;SDS011;37112;45.892;-123.962;2023-03-01T02:27:54;6.10;;;1.60;;
51066;SDS011;37112;45.892;-123.962;2023-03-01T02:30:17;1.70;;;1.20;;
51066;SDS011;37112;45.892;-123.962;2023-03-01T02:32:33;1.90;;;1.30;;
51066;SDS011;37112;45.892;-123.962;2023-03-01T02:34:50;3.80;;;2.00;;
51066;SDS011;37112;45.892;-123.962;2023-03-01T02:37:06;4.00;;;2.10;;
51066;SDS011;37112;45.892;-123.962;2023-03-01T02:39:30;2.40;;;2.10;;
51066;SDS011;37112;45.892;-123.962;2023-03-01T02:41:51;5.60;;;2.70;;
51066;SDS011;37112;45.892;-123.962;2023-03-01T02:44:07;4.50;;;2.90;;
51066;SDS011;37112;45.892;-123.962;2023-03-01T02:46:22;1.60;;;1.00;;
51066;SDS011;37112;45.892;-123.962;2023-03-01T02:48:41;5.10;;;0.90;;
51066;SDS011;37112;45.892;-123.962;2023-03-01T02:51:02;2.10;;;1.70;;
51066;SDS011;37112;45.892;-123.962;2023-03-01T02:53:25;5.70;;;5.10;;
51066;SDS011;37112;45.892;-123.962;2023-03-01T02:55:45;4.10;;;1.80;;
51066;SDS011;37112;45.892;-123.962;2023-03-01T02:57:59;4.90;;;2.00;;
51066;SDS011;37112;45.892;-123.962;2023-03-01T03:00:17;4.70;;;3.10;;
51066;SDS011;37112;45.892;-123.962;2023-03-01T03:02:34;2.40;;;1.50;;
51066;SDS011;37112;45.892;-123.962;2023-03-01T03:04:53;2.60;;;1.20;;
51066;SDS011;37112;45.892;-123.962;2023-03-01T03:07:07;3.10;;;1.70;;
51066;SDS011;37112;45.892;-123.962;2023-03-01T03:09:21;2.90;;;1.60;;
51066;SDS011;37112;45.892;-123.962;2023-03-01T03:11:35;8.50;;;5.60;;
51066;SDS011;37112;45.892;-123.962;2023-03-01T03:13:51;8.30;;;3.50;;
51066;SDS011;37112;45.892;-123.962;2023-03-01T03:16:06;12.10;;;9.40;;
51066;SDS011;37112;45.892;-123.962;2023-03-01T03:18:20;4.50;;;2.60;;
51066;SDS011;37112;45.892;-123.962;2023-03-01T03:20:38;3.00;;;1.60;;
51066;SDS011;37112;45.892;-123.962;2023-03-01T03:22:55;4.70;;;2.30;;
51066;SDS011;37112;45.892;-123.962;2023-03-01T03:25:11;4.40;;;1.80;;
51066;SDS011;37112;45.892;-123.962;2023-03-01T03:27:25;9.70;;;2.40;;
51066;SDS011;37112;45.892;-123.962;2023-03-01T03:29:42;5.10;;;1.60;;
51066;SDS011;37112;45.892;-123.962;2023-03-01T03:31:57;3.00;;;1.00;;
51066;SDS011;37112;45.892;-123.962;2023-03-01T03:34:11;3.20;;;0.90;;
51066;SDS011;37112;45.892;-123.962;2023-03-01T03:36:26;3.50;;;0.90;;
51066;SDS011;37112;45.892;-123.962;2023-03-01T03:38:40;1.80;;;0.90;;
51066;SDS011;37112;45.892;-123.962;2023-03-01T03:40:59;2.50;;;0.80;;
51066;SDS011;37112;45.892;-123.962;2023-03-01T03:43:16;4.10;;;1.10;;
51066;SDS011;37112;45.892;-123.962;2023-03-01T03:45:32;4.40;;;1.70;;
51066;SDS011;37112;45.892;-123.962;2023-03-01T03:47:48;4.70;;;1.60;;
51066;SDS011;37112;45.892;-123.962;2023-03-01T03:50:02;2.70;;;1.40;;
51066;SDS011;37112;45.892;-123.962;2023-03-01T03:52:16;3.90;;;1.20;;
51066;SDS011;37112;45.892;-123.962;2023-03-01T03:54:30;5.70;;;1.40;;
51066;SDS011;37112;45.892;-123.962;2023-03-01T03:56:44;7.00;;;1.60;;
51066;SDS011;37112;45.892;-123.962;2023-03-01T03:58:59;4.20;;;2.20;;
51066;SDS011;37112;45.892;-123.962;2023-03-01T04:01:14;7.90;;;4.80;;
51066;SDS011;37112;45.892;-123.962;2023-03-01T04:03:29;5.60;;;4.00;;
51066;SDS011;37112;45.892;-123.962;2023-03-01T04:05:46;5.00;;;3.30;;
51066;SDS011;37112;45.892;-123.962;2023-03-01T04:08:02;5.60;;;3.50;;
51066;SDS011;37112;45.892;-123.962;2023-03-01T04:12:31;18.60;;;9.60;;
51066;SDS011;37112;45.892;-123.962;2023-03-01T04:14:45;11.10;;;7.60;;
51066;SDS011;37112;45.892;-123.962;2023-03-01T04:17:00;14.20;;;9.30;;
51066;SDS011;37112;45.892;-123.962;2023-03-01T04:19:14;13.60;;;8.20;;
51066;SDS011;37112;45.892;-123.962;2023-03-01T04:21:29;12.30;;;7.30;;
51066;SDS011;37112;45.892;-123.962;2023-03-01T04:23:43;13.60;;;5.60;;
51066;SDS011;37112;45.892;-123.962;2023-03-01T04:26:00;6.30;;;2.40;;
51066;SDS011;37112;45.892;-123.962;2023-03-01T04:28:13;9.30;;;3.70;;
51066;SDS011;37112;45.892;-123.962;2023-03-01T04:30:29;22.30;;;8.90;;
51066;SDS011;37112;45.892;-123.962;2023-03-01T04:32:50;33.10;;;12.00;;
51066;SDS011;37112;45.892;-123.962;2023-03-01T04:35:05;37.60;;;14.20;;
51066;SDS011;37112;45.892;-123.962;2023-03-01T04:37:19;46.80;;;16.20;;
51066;SDS011;37112;45.892;-123.962;2023-03-01T04:39:38;41.30;;;14.30;;
51066;SDS011;37112;45.892;-123.962;2023-03-01T04:41:54;33.30;;;13.50;;
51066;SDS011;37112;45.892;-123.962;2023-03-01T04:44:09;27.90;;;8.90;;
51066;SDS011;37112;45.892;-123.962;2023-03-01T04:46:24;13.90;;;5.20;;
51066;SDS011;37112;45.892;-123.962;2023-03-01T04:48:40;13.10;;;5.80;;
51066;SDS011;37112;45.892;-123.962;2023-03-01T04:50:58;4.00;;;1.30;;
51066;SDS011;37112;45.892;-123.962;2023-03-01T04:53:17;13.20;;;3.50;;
51066;SDS011;37112;45.892;-123.962;2023-03-01T04:55:31;23.40;;;9.40;;
51066;SDS011;37112;45.892;-123.962;2023-03-01T04:57:44;5.20;;;2.20;;
51066;SDS011;37112;45.892;-123.962;2023-03-01T05:00:02;2.50;;;0.80;;
51066;SDS011;37112;45.892;-123.962;2023-03-01T05:02:28;0.80;;;0.80;;
51066;SDS011;37112;45.892;-123.962;2023-03-01T05:04:42;1.80;;;0.70;;
51066;SDS011;37112;45.892;-123.962;2023-03-01T05:07:01;4.70;;;3.20;;
51066;SDS011;37112;45.892;-123.962;2023-03-01T05:09:15;10.00;;;6.40;;
51066;SDS011;37112;45.892;-123.962;2023-03-01T05:11:30;3.00;;;1.80;;
51066;SDS011;37112;45.892;-123.962;2023-03-01T05:13:44;4.60;;;0.90;;
51066;SDS011;37112;45.892;-123.962;2023-03-01T05:15:58;7.10;;;2.10;;
51066;SDS011;37112;45.892;-123.962;2023-03-01T05:18:13;34.50;;;17.50;;
51066;SDS011;37112;45.892;-123.962;2023-03-01T05:20:27;8.10;;;2.80;;
51066;SDS011;37112;45.892;-123.962;2023-03-01T05:22:44;2.90;;;2.10;;
51066;SDS011;37112;45.892;-123.962;2023-03-01T05:24:58;2.80;;;1.00;;
51066;SDS011;37112;45.892;-123.962;2023-03-01T05:27:12;2.60;;;0.80;;
51066;SDS011;37112;45.892;-123.962;2023-03-01T05:29:27;0.70;;;0.70;;
51066;SDS011;37112;45.892;-123.962;2023-03-01T05:31:43;2.40;;;1.10;;
51066;SDS011;37112;45.892;-123.962;2023-03-01T05:33:57;6.20;;;4.20;;
51066;SDS011;37112;45.892;-123.962;2023-03-01T05:36:11;4.50;;;2.20;;
51066;SDS011;37112;45.892;-123.962;2023-03-01T05:38:26;1.10;;;0.80;;
51066;SDS011;37112;45.892;-123.962;2023-03-01T05:40:39;1.40;;;1.00;;
51066;SDS011;37112;45.892;-123.962;2023-03-01T05:42:54;1.90;;;1.50;;
51066;SDS011;37112;45.892;-123.962;2023-03-01T05:45:09;3.90;;;2.80;;
51066;SDS011;37112;45.892;-123.962;2023-03-01T05:47:22;12.00;;;10.40;;
51066;SDS011;37112;45.892;-123.962;2023-03-01T05:49:38;2.90;;;1.60;;
51066;SDS011;37112;45.892;-123.962;2023-03-01T05:51:52;6.50;;;4.40;;
51066;SDS011;37112;45.892;-123.962;2023-03-01T05:54:05;6.90;;;5.40;;
51066;SDS011;37112;45.892;-123.962;2023-03-01T05:56:20;1.80;;;1.50;;
51066;SDS011;37112;45.892;-123.962;2023-03-01T05:58:34;1.70;;;1.60;;
51066;SDS011;37112;45.892;-123.962;2023-03-01T06:00:48;2.30;;;1.90;;
51066;SDS011;37112;45.892;-123.962;2023-03-01T06:03:03;2.80;;;1.80;;
51066;SDS011;37112;45.892;-123.962;2023-03-01T06:05:16;3.20;;;0.90;;
51066;SDS011;37112;45.892;-123.962;2023-03-01T06:07:31;2.40;;;1.10;;
51066;SDS011;37112;45.892;-123.962;2023-03-01T06:09:45;2.00;;;1.10;;
51066;SDS011;37112;45.892;-123.962;2023-03-01T06:11:58;5.60;;;1.20;;
51066;SDS011;37112;45.892;-123.962;2023-03-01T06:14:11;1.90;;;0.80;;
51066;SDS011;37112;45.892;-123.962;2023-03-01T06:16:25;3.10;;;0.80;;
51066;SDS011;37112;45.892;-123.962;2023-03-01T06:18:38;2.10;;;0.80;;
51066;SDS011;37112;45.892;-123.962;2023-03-01T06:20:54;2.90;;;0.80;;
51066;SDS011;37112;45.892;-123.962;2023-03-01T06:23:08;2.40;;;1.20;;
51066;SDS011;37112;45.892;-123.962;2023-03-01T06:25:22;1.10;;;0.60;;
51066;SDS011;37112;45.892;-123.962;2023-03-01T06:27:36;5.20;;;0.80;;
51066;SDS011;37112;45.892;-123.962;2023-03-01T06:29:49;1.20;;;0.80;;
51066;SDS011;37112;45.892;-123.962;2023-03-01T06:32:04;6.30;;;0.80;;
51066;SDS011;37112;45.892;-123.962;2023-03-01T06:34:17;2.60;;;1.70;;
51066;SDS011;37112;45.892;-123.962;2023-03-01T06:36:30;7.20;;;5.60;;
51066;SDS011;37112;45.892;-123.962;2023-03-01T06:40:53;2.70;;;1.30;;
51066;SDS011;37112;45.892;-123.962;2023-03-01T06:43:07;2.50;;;1.00;;
51066;SDS011;37112;45.892;-123.962;2023-03-01T06:45:33;4.30;;;0.70;;
51066;SDS011;37112;45.892;-123.962;2023-03-01T06:47:47;2.80;;;1.00;;
51066;SDS011;37112;45.892;-123.962;2023-03-01T06:50:00;4.00;;;0.70;;
51066;SDS011;37112;45.892;-123.962;2023-03-01T06:52:14;4.70;;;0.80;;
51066;SDS011;37112;45.892;-123.962;2023-03-01T06:54:27;3.20;;;0.90;;
51066;SDS011;37112;45.892;-123.962;2023-03-01T06:56:40;2.10;;;0.90;;
51066;SDS011;37112;45.892;-123.962;2023-03-01T06:58:53;3.00;;;0.80;;
51066;SDS011;37112;45.892;-123.962;2023-03-01T07:01:09;1.70;;;0.70;;
51066;SDS011;37112;45.892;-123.962;2023-03-01T07:03:22;0.80;;;0.70;;
51066;SDS011;37112;45.892;-123.962;2023-03-01T07:05:35;2.60;;;1.00;;
51066;SDS011;37112;45.892;-123.962;2023-03-01T07:07:49;1.40;;;0.80;;
51066;SDS011;37112;45.892;-123.962;2023-03-01T07:10:04;1.10;;;0.80;;
51066;SDS011;37112;45.892;-123.962;2023-03-01T07:12:19;2.30;;;0.90;;
51066;SDS011;37112;45.892;-123.962;2023-03-01T07:14:32;1.20;;;0.70;;
51066;SDS011;37112;45.892;-123.962;2023-03-01T07:16:45;1.90;;;0.70;;
51066;SDS011;37112;45.892;-123.962;2023-03-01T07:18:58;3.80;;;0.90;;
51066;SDS011;37112;45.892;-123.962;2023-03-01T07:21:13;1.50;;;0.80;;
51066;SDS011;37112;45.892;-123.962;2023-03-01T07:23:26;2.40;;;1.00;;
51066;SDS011;37112;45.892;-123.962;2023-03-01T07:25:39;2.90;;;1.00;;
51066;SDS011;37112;45.892;-123.962;2023-03-01T07:27:52;1.00;;;0.70;;
51066;SDS011;37112;45.892;-123.962;2023-03-01T07:30:06;1.60;;;0.90;;
51066;SDS011;37112;45.892;-123.962;2023-03-01T07:32:25;0.90;;;0.70;;
51066;SDS011;37112;45.892;-123.962;2023-03-01T07:34:39;2.30;;;1.00;;
51066;SDS011;37112;45.892;-123.962;2023-03-01T07:36:52;1.00;;;0.70;;
51066;SDS011;37112;45.892;-123.962;2023-03-01T07:39:06;0.60;;;0.60;;
51066;SDS011;37112;45.892;-123.962;2023-03-01T07:41:20;1.50;;;0.70;;
51066;SDS011;37112;45.892;-123.962;2023-03-01T07:43:33;2.90;;;0.70;;
51066;SDS011;37112;45.892;-123.962;2023-03-01T07:45:46;3.20;;;0.80;;
51066;SDS011;37112;45.892;-123.962;2023-03-01T07:47:59;2.50;;;1.00;;
51066;SDS011;37112;45.892;-123.962;2023-03-01T07:50:13;0.90;;;0.80;;
51066;SDS011;37112;45.892;-123.962;2023-03-01T07:52:26;3.20;;;0.90;;
51066;SDS011;37112;45.892;-123.962;2023-03-01T07:54:42;3.00;;;0.90;;
51066;SDS011;37112;45.892;-123.962;2023-03-01T07:56:55;3.90;;;0.80;;
51066;SDS011;37112;45.892;-123.962;2023-03-01T07:59:09;3.60;;;0.80;;
51066;SDS011;37112;45.892;-123.962;2023-03-01T08:01:22;4.60;;;1.00;;
51066;SDS011;37112;45.892;-123.962;2023-03-01T08:03:35;1.40;;;0.80;;
51066;SDS011;37112;45.892;-123.962;2023-03-01T08:05:49;4.10;;;0.70;;
51066;SDS011;37112;45.892;-123.962;2023-03-01T08:08:04;3.50;;;0.80;;
51066;SDS011;37112;45.892;-123.962;2023-03-01T08:10:19;1.30;;;0.70;;
51066;SDS011;37112;45.892;-123.962;2023-03-01T08:12:32;0.90;;;0.70;;
51066;SDS011;37112;45.892;-123.962;2023-03-01T08:14:46;1.80;;;0.80;;
51066;SDS011;37112;45.892;-123.962;2023-03-01T08:16:59;4.70;;;1.00;;
51066;SDS011;37112;45.892;-123.962;2023-03-01T08:19:12;1.50;;;0.90;;
51066;SDS011;37112;45.892;-123.962;2023-03-01T08:21:25;3.10;;;0.80;;
51066;SDS011;37112;45.892;-123.962;2023-03-01T08:23:39;2.10;;;0.90;;
51066;SDS011;37112;45.892;-123.962;2023-03-01T08:25:52;1.30;;;1.20;;
51066;SDS011;37112;45.892;-123.962;2023-03-01T08:28:06;3.20;;;0.90;;
51066;SDS011;37112;45.892;-123.962;2023-03-01T08:30:19;3.10;;;1.10;;
51066;SDS011;37112;45.892;-123.962;2023-03-01T08:32:37;4.90;;;1.30;;
51066;SDS011;37112;45.892;-123.962;2023-03-01T08:34:50;5.90;;;1.90;;
51066;SDS011;37112;45.892;-123.962;2023-03-01T08:37:04;5.60;;;2.00;;
51066;SDS011;37112;45.892;-123.962;2023-03-01T08:39:19;3.00;;;1.70;;
51066;SDS011;37112;45.892;-123.962;2023-03-01T08:41:32;3.20;;;1.00;;
51066;SDS011;37112;45.892;-123.962;2023-03-01T08:43:46;2.60;;;1.30;;
51066;SDS011;37112;45.892;-123.962;2023-03-01T08:46:00;2.10;;;0.80;;
51066;SDS011;37112;45.892;-123.962;2023-03-01T08:48:15;3.70;;;1.40;;
51066;SDS011;37112;45.892;-123.962;2023-03-01T08:50:29;4.20;;;1.30;;
51066;SDS011;37112;45.892;-123.962;2023-03-01T08:52:42;5.80;;;2.90;;
51066;SDS011;37112;45.892;-123.962;2023-03-01T08:54:55;7.10;;;3.20;;
51066;SDS011;37112;45.892;-123.962;2023-03-01T08:57:09;6.00;;;2.40;;
51066;SDS011;37112;45.892;-123.962;2023-03-01T08:59:22;6.80;;;1.70;;
51066;SDS011;37112;45.892;-123.962;2023-03-01T09:01:37;3.80;;;1.60;;
51066;SDS011;37112;45.892;-123.962;2023-03-01T09:03:52;4.50;;;1.50;;
51066;SDS011;37112;45.892;-123.962;2023-03-01T09:06:05;2.50;;;1.40;;
51066;SDS011;37112;45.892;-123.962;2023-03-01T09:08:20;1.20;;;1.10;;
51066;SDS011;37112;45.892;-123.962;2023-03-01T09:10:33;3.80;;;0.90;;
51066;SDS011;37112;45.892;-123.962;2023-03-01T09:12:50;2.60;;;1.00;;
51066;SDS011;37112;45.892;-123.962;2023-03-01T09:15:04;7.30;;;1.00;;
51066;SDS011;37112;45.892;-123.962;2023-03-01T09:17:21;2.30;;;0.90;;
51066;SDS011;37112;45.892;-123.962;2023-03-01T09:19:35;5.30;;;0.90;;
51066;SDS011;37112;45.892;-123.962;2023-03-01T09:21:48;2.30;;;0.90;;
51066;SDS011;37112;45.892;-123.962;2023-03-01T09:24:03;3.40;;;0.90;;
51066;SDS011;37112;45.892;-123.962;2023-03-01T09:26:17;4.60;;;0.60;;
51066;SDS011;37112;45.892;-123.962;2023-03-01T09:28:31;2.20;;;0.70;;
51066;SDS011;37112;45.892;-123.962;2023-03-01T09:30:45;3.10;;;1.10;;
51066;SDS011;37112;45.892;-123.962;2023-03-01T09:32:58;2.30;;;0.90;;
51066;SDS011;37112;45.892;-123.962;2023-03-01T09:35:12;2.70;;;1.00;;
51066;SDS011;37112;45.892;-123.962;2023-03-01T09:37:25;5.20;;;0.90;;
51066;SDS011;37112;45.892;-123.962;2023-03-01T09:39:40;3.90;;;0.90;;
51066;SDS011;37112;45.892;-123.962;2023-03-01T09:41:57;1.40;;;0.90;;
51066;SDS011;37112;45.892;-123.962;2023-03-01T09:44:13;4.10;;;0.70;;
51066;SDS011;37112;45.892;-123.962;2023-03-01T09:46:42;2.40;;;0.90;;
51066;SDS011;37112;45.892;-123.962;2023-03-01T09:48:57;4.70;;;1.80;;
51066;SDS011;37112;45.892;-123.962;2023-03-01T09:51:16;2.90;;;1.60;;
51066;SDS011;37112;45.892;-123.962;2023-03-01T09:53:33;2.70;;;0.90;;
51066;SDS011;37112;45.892;-123.962;2023-03-01T09:55:48;2.20;;;0.80;;
51066;SDS011;37112;45.892;-123.962;2023-03-01T09:58:14;2.50;;;0.90;;
51066;SDS011;37112;45.892;-123.962;2023-03-01T10:00:45;3.60;;;1.40;;
51066;SDS011;37112;45.892;-123.962;2023-03-01T10:03:01;4.30;;;1.60;;
51066;SDS011;37112;45.892;-123.962;2023-03-01T10:05:27;3.40;;;2.10;;
51066;SDS011;37112;45.892;-123.962;2023-03-01T10:07:52;2.00;;;1.30;;
51066;SDS011;37112;45.892;-123.962;2023-03-01T10:10:22;3.30;;;1.30;;
51066;SDS011;37112;45.892;-123.962;2023-03-01T10:12:39;2.10;;;1.30;;
51066;SDS011;37112;45.892;-123.962;2023-03-01T10:14:58;2.10;;;0.90;;
51066;SDS011;37112;45.892;-123.962;2023-03-01T10:17:18;1.30;;;0.80;;
51066;SDS011;37112;45.892;-123.962;2023-03-01T10:19:39;3.40;;;1.10;;
51066;SDS011;37112;45.892;-123.962;2023-03-01T10:21:53;4.80;;;1.70;;
51066;SDS011;37112;45.892;-123.962;2023-03-01T10:24:10;6.10;;;2.70;;
51066;SDS011;37112;45.892;-123.962;2023-03-01T10:26:33;3.20;;;2.00;;
51066;SDS011;37112;45.892;-123.962;2023-03-01T10:28:57;4.00;;;1.40;;
51066;SDS011;37112;45.892;-123.962;2023-03-01T10:31:16;1.30;;;0.80;;
51066;SDS011;37112;45.892;-123.962;2023-03-01T10:33:36;3.80;;;0.80;;
51066;SDS011;37112;45.892;-123.962;2023-03-01T10:35:50;2.10;;;0.90;;
51066;SDS011;37112;45.892;-123.962;2023-03-01T10:38:05;3.00;;;0.90;;
51066;SDS011;37112;45.892;-123.962;2023-03-01T10:40:20;2.30;;;0.70;;
51066;SDS011;37112;45.892;-123.962;2023-03-01T10:42:34;4.70;;;1.00;;
51066;SDS011;37112;45.892;-123.962;2023-03-01T10:44:49;2.80;;;0.70;;
51066;SDS011;37112;45.892;-123.962;2023-03-01T10:47:03;2.00;;;0.90;;
51066;SDS011;37112;45.892;-123.962;2023-03-01T10:49:23;0.60;;;0.60;;
51066;SDS011;37112;45.892;-123.962;2023-03-01T10:51:36;1.30;;;0.80;;
51066;SDS011;37112;45.892;-123.962;2023-03-01T10:53:51;3.00;;;0.80;;
51066;SDS011;37112;45.892;-123.962;2023-03-01T10:56:05;2.60;;;0.90;;
51066;SDS011;37112;45.892;-123.962;2023-03-01T10:58:21;1.10;;;1.00;;
51066;SDS011;37112;45.892;-123.962;2023-03-01T11:00:34;1.30;;;0.80;;
51066;SDS011;37112;45.892;-123.962;2023-03-01T11:03:10;1.60;;;0.80;;
51066;SDS011;37112;45.892;-123.962;2023-03-01T11:05:24;1.20;;;0.80;;
51066;SDS011;37112;45.892;-123.962;2023-03-01T11:07:43;2.00;;;0.70;;
51066;SDS011;37112;45.892;-123.962;2023-03-01T11:10:01;4.00;;;0.70;;
51066;SDS011;37112;45.892;-123.962;2023-03-01T11:12:27;1.10;;;0.80;;
51066;SDS011;37112;45.892;-123.962;2023-03-01T11:14:45;3.00;;;0.80;;
51066;SDS011;37112;45.892;-123.962;2023-03-01T11:17:01;2.80;;;1.00;;
51066;SDS011;37112;45.892;-123.962;2023-03-01T11:19:17;4.00;;;0.90;;
51066;SDS011;37112;45.892;-123.962;2023-03-01T11:21:32;5.80;;;1.10;;
51066;SDS011;37112;45.892;-123.962;2023-03-01T11:23:46;1.50;;;0.90;;
51066;SDS011;37112;45.892;-123.962;2023-03-01T11:26:01;1.80;;;1.30;;
51066;SDS011;37112;45.892;-123.962;2023-03-01T11:28:18;1.90;;;1.50;;
51066;SDS011;37112;45.892;-123.962;2023-03-01T11:30:35;1.90;;;1.10;;
51066;SDS011;37112;45.892;-123.962;2023-03-01T11:32:55;1.50;;;0.80;;
51066;SDS011;37112;45.892;-123.962;2023-03-01T11:35:16;1.10;;;1.00;;
51066;SDS011;37112;45.892;-123.962;2023-03-01T11:37:33;3.00;;;0.90;;
51066;SDS011;37112;45.892;-123.962;2023-03-01T11:39:53;3.00;;;0.80;;
51066;SDS011;37112;45.892;-123.962;2023-03-01T11:42:11;2.60;;;0.90;;
51066;SDS011;37112;45.892;-123.962;2023-03-01T11:44:28;3.70;;;0.90;;
51066;SDS011;37112;45.892;-123.962;2023-03-01T11:47:01;0.80;;;0.80;;
51066;SDS011;37112;45.892;-123.962;2023-03-01T11:49:49;1.20;;;0.80;;
51066;SDS011;37112;45.892;-123.962;2023-03-01T11:52:20;3.30;;;0.90;;
51066;SDS011;37112;45.892;-123.962;2023-03-01T11:54:44;3.20;;;1.00;;
51066;SDS011;37112;45.892;-123.962;2023-03-01T11:57:09;1.10;;;0.80;;
51066;SDS011;37112;45.892;-123.962;2023-03-01T11:59:48;1.00;;;0.60;;
51066;SDS011;37112;45.892;-123.962;2023-03-01T12:04:54;1.30;;;0.70;;
51066;SDS011;37112;45.892;-123.962;2023-03-01T12:07:34;2.50;;;0.70;;
51066;SDS011;37112;45.892;-123.962;2023-03-01T12:10:02;1.10;;;0.80;;
51066;SDS011;37112;45.892;-123.962;2023-03-01T12:12:34;0.80;;;0.80;;
51066;SDS011;37112;45.892;-123.962;2023-03-01T12:17:46;1.20;;;0.80;;
51066;SDS011;37112;45.892;-123.962;2023-03-01T12:20:12;6.90;;;1.00;;
51066;SDS011;37112;45.892;-123.962;2023-03-01T12:22:31;3.80;;;1.00;;
51066;SDS011;37112;45.892;-123.962;2023-03-01T12:24:53;3.30;;;0.90;;
51066;SDS011;37112;45.892;-123.962;2023-03-01T12:27:29;1.00;;;0.90;;
51066;SDS011;37112;45.892;-123.962;2023-03-01T12:29:59;7.90;;;0.90;;
51066;SDS011;37112;45.892;-123.962;2023-03-01T12:32:42;3.40;;;1.30;;
51066;SDS011;37112;45.892;-123.962;2023-03-01T12:35:12;5.00;;;1.10;;
51066;SDS011;37112;45.892;-123.962;2023-03-01T12:37:45;1.30;;;1.00;;
51066;SDS011;37112;45.892;-123.962;2023-03-01T12:40:13;3.10;;;0.80;;
51066;SDS011;37112;45.892;-123.962;2023-03-01T12:42:40;4.70;;;0.90;;
51066;SDS011;37112;45.892;-123.962;2023-03-01T12:45:05;3.60;;;1.10;;
51066;SDS011;37112;45.892;-123.962;2023-03-01T12:47:55;4.20;;;1.20;;
51066;SDS011;37112;45.892;-123.962;2023-03-01T12:50:18;2.20;;;1.00;;
51066;SDS011;37112;45.892;-123.962;2023-03-01T12:52:35;0.60;;;0.60;;
51066;SDS011;37112;45.892;-123.962;2023-03-01T12:54:53;3.00;;;1.20;;
51066;SDS011;37112;45.892;-123.962;2023-03-01T12:57:15;4.40;;;2.00;;
51066;SDS011;37112;45.892;-123.962;2023-03-01T13:01:51;1.10;;;0.90;;
51066;SDS011;37112;45.892;-123.962;2023-03-01T13:04:20;1.00;;;0.90;;
51066;SDS011;37112;45.892;-123.962;2023-03-01T13:06:47;2.70;;;0.80;;
51066;SDS011;37112;45.892;-123.962;2023-03-01T13:09:11;1.70;;;0.90;;
51066;SDS011;37112;45.892;-123.962;2023-03-01T13:11:34;2.70;;;1.00;;
51066;SDS011;37112;45.892;-123.962;2023-03-01T13:13:51;1.70;;;1.30;;
51066;SDS011;37112;45.892;-123.962;2023-03-01T13:19:07;3.00;;;0.90;;
51066;SDS011;37112;45.892;-123.962;2023-03-01T13:21:32;1.60;;;0.90;;